Kingsland, Texas
Current Conditions -  °F | °C
As of 6:35 AM on Monday 22 Dec 2014 (Local Time) from KDZB Reporting Station
Clear Clear  
Wind Chill: 56°   Ceiling: Unl
Heat Index: 56°   Visibility: 10mi
Dew Point: 52°   Wind: 5mph
Humidity: 86%   Direction: 230°SW
Pressure: 29.7"   Gusts: NA
Location:  30.66°N, 98.44°W
Report Text: KDZB 221235Z AUTO 23004KT 10SM CLR 13/11 A2970 RMK AO2 T01320109
Loading
Personal Weather Stations






























Interactive Weather Map New forecast layout! Learn more

10-Day Weather Forecast

Advertisements
Track Severe Weather on mobile